createdAt,value
2023-05-23T00:02:08.363Z,99271.34
2023-05-23T00:04:58.638Z,99272.50
2023-05-23T00:07:46.906Z,99272.59
2023-05-23T00:10:34.659Z,99272.34
2023-05-23T00:13:22.760Z,99277.25
2023-05-23T00:16:10.727Z,99272.16
2023-05-23T00:18:59.436Z,99283.28
2023-05-23T00:21:49.839Z,99278.22
2023-05-23T00:24:37.638Z,99257.00
2023-05-23T00:27:25.537Z,99255.03
2023-05-23T00:30:13.658Z,99264.53
2023-05-23T00:33:01.605Z,99265.81
2023-05-23T00:35:49.639Z,99265.91
2023-05-23T00:38:39.649Z,99260.72
2023-05-23T00:41:30.634Z,99262.84
2023-05-23T00:44:20.190Z,99269.91
2023-05-23T00:47:09.303Z,99268.94
2023-05-23T00:49:57.147Z,99260.31
2023-05-23T00:52:46.673Z,99238.41
2023-05-23T00:55:35.877Z,99261.28
2023-05-23T00:58:24.156Z,99266.06
2023-05-23T01:01:12.152Z,99237.38
2023-05-23T01:04:00.106Z,99257.38
2023-05-23T01:06:49.273Z,99247.50
2023-05-23T01:12:52.224Z,99234.94
2023-05-23T01:15:46.793Z,99240.94
2023-05-23T01:18:41.511Z,99230.94
2023-05-23T01:21:30.518Z,99247.28
2023-05-23T01:24:36.682Z,99244.53
2023-05-23T01:27:38.156Z,99244.63
2023-05-23T01:30:26.992Z,99224.78
2023-05-23T01:33:17.577Z,99237.38
2023-05-23T01:36:05.807Z,99222.97
2023-05-23T01:38:53.738Z,99235.84
2023-05-23T01:41:41.682Z,99234.59
2023-05-23T01:44:31.115Z,99236.31
2023-05-23T01:47:19.667Z,99229.84
2023-05-23T01:50:09.076Z,99224.19
2023-05-23T01:52:57.804Z,99231.22
2023-05-23T01:55:46.513Z,99235.75
2023-05-23T01:58:34.527Z,99233.44
2023-05-23T02:01:23.822Z,99236.97
2023-05-23T02:04:11.855Z,99240.47
2023-05-23T02:06:59.499Z,99247.25
2023-05-23T02:09:47.266Z,99234.66
2023-05-23T02:12:35.074Z,99253.94
2023-05-23T02:15:22.845Z,99231.28
2023-05-23T02:18:11.932Z,99254.78
2023-05-23T02:20:59.666Z,99261.28
2023-05-23T02:23:47.432Z,99253.44
2023-05-23T02:26:35.034Z,99248.22
2023-05-23T02:29:23.034Z,99247.56
2023-05-23T02:32:10.785Z,99256.63
2023-05-23T02:34:59.848Z,99251.94
2023-05-23T02:37:47.808Z,99261.81
2023-05-23T02:40:35.531Z,99256.47
2023-05-23T02:43:23.246Z,99249.94
2023-05-23T02:46:11.228Z,99253.75
2023-05-23T02:48:58.896Z,99259.66
2023-05-23T02:51:47.904Z,99266.69
2023-05-23T02:54:35.679Z,99259.28
2023-05-23T02:57:23.366Z,99256.25
2023-05-23T03:00:12.189Z,99258.47
2023-05-23T03:02:59.992Z,99267.50
2023-05-23T03:05:48.417Z,99266.66
2023-05-23T03:08:37.499Z,99267.34
2023-05-23T03:11:25.440Z,99260.31
2023-05-23T03:14:13.911Z,99260.78
2023-05-23T03:17:04.028Z,99261.16
2023-05-23T03:19:51.678Z,99264.81
2023-05-23T03:22:39.332Z,99265.53
2023-05-23T03:25:28.423Z,99269.38
2023-05-23T03:28:16.232Z,99259.97
2023-05-23T03:31:04.084Z,99268.03
2023-05-23T03:33:52.115Z,99272.56
2023-05-23T03:36:40.416Z,99265.00
2023-05-23T03:39:28.170Z,99270.06
2023-05-23T03:42:17.261Z,99274.09
2023-05-23T03:45:05.673Z,99278.63
2023-05-23T03:47:53.468Z,99274.91
2023-05-23T03:50:41.206Z,99276.22
2023-05-23T03:53:28.897Z,99263.66
2023-05-23T03:56:16.641Z,99278.44
2023-05-23T03:59:05.907Z,99274.75
2023-05-23T04:01:53.578Z,99211.31
2023-05-23T04:04:41.367Z,99279.94
2023-05-23T04:07:29.228Z,99285.63
2023-05-23T04:10:17.108Z,99284.66
2023-05-23T04:13:04.814Z,99289.84
2023-05-23T04:15:56.270Z,99260.50
2023-05-23T04:18:47.149Z,99276.41
2023-05-23T04:21:34.983Z,99285.00
2023-05-23T04:24:22.722Z,99291.19
2023-05-23T04:27:10.386Z,99281.78
2023-05-23T04:29:58.325Z,99293.22
2023-05-23T04:32:47.495Z,99294.88
2023-05-23T04:35:39.010Z,99284.94
2023-05-23T04:38:27.830Z,99290.16
2023-05-23T04:41:16.412Z,99297.53
2023-05-23T04:44:06.216Z,99294.00
2023-05-23T04:46:54.099Z,99291.19
2023-05-23T04:49:43.155Z,99302.41
2023-05-23T04:52:33.425Z,99303.25
2023-05-23T04:55:21.556Z,99307.81
2023-05-23T04:58:09.924Z,99307.63
2023-05-23T05:00:57.849Z,99305.22
2023-05-23T05:03:45.539Z,99309.25
2023-05-23T05:06:34.662Z,99308.63
2023-05-23T05:09:23.175Z,99308.63
2023-05-23T05:12:10.795Z,99309.97
2023-05-23T05:14:58.598Z,99320.06
2023-05-23T05:17:48.290Z,99306.63
2023-05-23T05:27:03.356Z,99323.50
2023-05-23T05:29:51.922Z,99324.34
2023-05-23T05:32:39.834Z,99323.00
2023-05-23T05:35:27.672Z,99327.03
2023-05-23T05:38:15.403Z,99324.63
2023-05-23T05:41:05.468Z,99329.00
2023-05-23T05:43:54.023Z,99333.84
2023-05-23T05:46:41.821Z,99332.34
2023-05-23T05:49:29.582Z,99343.53
2023-05-23T05:52:18.602Z,99337.66
2023-05-23T05:55:07.290Z,99335.41
2023-05-23T05:57:56.404Z,99270.09
2023-05-23T06:00:44.161Z,99332.63
2023-05-23T06:03:32.323Z,99342.25
2023-05-23T06:06:20.270Z,99344.44
2023-05-23T06:09:08.065Z,99326.97
2023-05-23T06:11:55.915Z,99292.69
2023-05-23T06:14:45.044Z,99352.13
2023-05-23T06:17:32.981Z,99346.75
2023-05-23T06:20:20.705Z,99341.09
2023-05-23T06:23:08.903Z,99347.38
2023-05-23T06:25:56.611Z,99345.41
2023-05-23T06:28:44.294Z,99342.88
2023-05-23T06:31:33.479Z,99339.03
2023-05-23T06:34:21.410Z,99333.41
2023-05-23T06:37:09.112Z,99328.75
2023-05-23T06:39:56.880Z,99328.94
2023-05-23T06:42:44.762Z,99317.50
2023-05-23T06:45:35.160Z,99330.16
2023-05-23T06:48:24.296Z,99334.81
2023-05-23T06:51:12.101Z,99332.19
2023-05-23T06:53:59.864Z,99331.09
2023-05-23T06:56:47.580Z,99327.34
2023-05-23T06:59:35.335Z,99259.66
2023-05-23T07:02:23.157Z,99330.06
2023-05-23T07:05:12.583Z,99320.03
2023-05-23T07:08:00.328Z,99318.59
2023-05-23T07:10:48.017Z,99327.00
2023-05-23T07:13:35.818Z,99322.78
2023-05-23T07:16:23.648Z,99306.72
2023-05-23T07:19:11.415Z,99321.69
2023-05-23T07:22:00.489Z,99317.84
2023-05-23T07:24:48.302Z,99327.53
2023-05-23T07:27:36.252Z,99319.53
2023-05-23T07:30:24.093Z,99263.66
2023-05-23T07:33:11.843Z,99327.53
2023-05-23T07:35:59.574Z,99326.22
2023-05-23T07:38:48.613Z,99323.97
2023-05-23T07:41:36.402Z,99322.91
2023-05-23T07:44:25.312Z,99321.66
2023-05-23T07:47:13.252Z,99326.03
2023-05-23T07:50:02.476Z,99326.81
2023-05-23T07:52:51.391Z,99317.47
2023-05-23T07:55:40.585Z,99320.84
2023-05-23T07:58:28.325Z,99333.03
2023-05-23T08:01:16.041Z,99327.16
2023-05-23T08:04:04.068Z,99331.34
2023-05-23T08:07:00.897Z,99331.16
2023-05-23T08:09:53.045Z,99329.38
2023-05-23T08:12:43.165Z,99335.44
2023-05-23T08:15:31.435Z,99320.06
2023-05-23T08:18:19.277Z,99318.75
2023-05-23T08:21:07.186Z,99319.03
2023-05-23T08:23:55.001Z,99320.25
2023-05-23T08:26:42.762Z,99308.38
2023-05-23T08:29:31.877Z,99317.69
2023-05-23T08:32:19.984Z,99322.13
2023-05-23T08:35:09.187Z,99301.41
2023-05-23T08:37:58.327Z,99311.94
2023-05-23T08:40:51.600Z,99307.81
2023-05-23T08:43:39.388Z,99306.78
2023-05-23T08:46:29.033Z,99230.94
2023-05-23T08:49:19.061Z,99295.91
2023-05-23T08:52:13.488Z,99316.59
2023-05-23T08:55:02.811Z,99318.75
2023-05-23T08:57:50.630Z,99307.31
2023-05-23T09:00:38.651Z,99307.88
2023-05-23T09:03:28.839Z,99321.78
2023-05-23T09:06:18.255Z,99311.31
2023-05-23T09:09:06.042Z,99318.66
2023-05-23T09:11:54.521Z,99310.31
2023-05-23T09:14:42.347Z,99313.22
2023-05-23T09:17:30.147Z,99262.41
2023-05-23T09:20:19.834Z,99309.88
2023-05-23T09:23:07.591Z,99311.53
2023-05-23T09:25:55.534Z,99311.53
2023-05-23T09:28:44.734Z,99308.41
2023-05-23T09:31:33.830Z,99308.16
2023-05-23T09:34:21.571Z,99305.81
2023-05-23T09:37:19.592Z,99312.13
2023-05-23T09:40:11.354Z,99308.28
2023-05-23T09:43:04.166Z,99301.94
2023-05-23T09:45:53.712Z,99314.88
2023-05-23T09:48:41.480Z,99298.78
2023-05-23T09:51:30.395Z,99283.50
2023-05-23T09:54:19.491Z,99251.94
2023-05-23T09:57:11.657Z,99297.09
2023-05-23T10:00:02.054Z,99292.19
2023-05-23T10:03:12.702Z,99298.06
2023-05-23T10:06:03.038Z,99303.25
2023-05-23T10:08:56.028Z,99303.22
2023-05-23T10:12:31.723Z,99302.19
2023-05-23T10:15:23.985Z,99297.22
2023-05-23T10:18:17.796Z,99298.47
2023-05-23T10:21:11.236Z,99301.19
2023-05-23T10:24:00.752Z,99269.31
2023-05-23T10:26:50.023Z,99296.00
2023-05-23T10:29:38.150Z,99293.50
2023-05-23T10:32:28.506Z,99298.06
2023-05-23T10:35:23.769Z,99296.84
2023-05-23T10:38:24.169Z,99258.66
2023-05-23T10:41:14.853Z,99294.16
2023-05-23T10:44:10.866Z,99293.09
2023-05-23T10:47:02.316Z,99267.22
2023-05-23T10:49:54.493Z,99278.69
2023-05-23T10:52:43.362Z,99287.88
2023-05-23T10:55:34.707Z,99296.88
2023-05-23T10:58:23.406Z,99283.28
2023-05-23T11:01:15.078Z,99290.84
2023-05-23T11:04:07.327Z,99281.69
2023-05-23T11:06:57.700Z,99278.31
2023-05-23T11:10:06.509Z,99283.16
2023-05-23T11:13:08.020Z,99280.03
2023-05-23T11:15:55.857Z,99285.47
2023-05-23T11:18:45.472Z,99279.44
2023-05-23T11:21:33.700Z,99260.06
2023-05-23T11:24:23.619Z,99277.97
2023-05-23T11:27:13.385Z,99265.47
2023-05-23T11:30:07.752Z,99280.91
2023-05-23T11:32:56.132Z,99265.72
2023-05-23T11:35:45.100Z,99277.59
2023-05-23T11:38:33.849Z,99276.94
2023-05-23T11:41:22.999Z,99281.97
2023-05-23T11:44:14.244Z,99282.19
2023-05-23T11:47:03.629Z,99284.28
2023-05-23T11:49:51.367Z,99270.50
2023-05-23T11:52:39.314Z,99282.59
2023-05-23T11:55:27.058Z,99278.63
2023-05-23T11:58:16.584Z,99257.13
2023-05-23T12:01:06.472Z,99241.28
2023-05-23T12:03:54.198Z,99259.66
2023-05-23T12:06:42.776Z,99274.22
2023-05-23T12:09:30.551Z,99263.78
2023-05-23T12:12:18.303Z,99273.19
2023-05-23T12:15:08.689Z,99240.44
2023-05-23T12:17:57.236Z,99254.41
2023-05-23T12:20:45.008Z,99263.41
2023-05-23T12:23:34.892Z,99255.81
2023-05-23T12:26:23.435Z,99242.69
2023-05-23T12:29:11.121Z,99232.44
2023-05-23T12:32:02.331Z,99229.94
2023-05-23T12:34:51.015Z,99234.13
2023-05-23T12:37:41.091Z,99239.53
2023-05-23T12:40:29.881Z,99235.31
2023-05-23T12:43:17.942Z,99228.84
2023-05-23T12:46:06.411Z,99235.50
2023-05-23T12:48:55.865Z,99239.06
2023-05-23T12:51:43.676Z,99234.69
2023-05-23T12:54:31.445Z,99235.28
2023-05-23T12:57:19.274Z,99239.66
2023-05-23T13:00:08.286Z,99236.97
2023-05-23T13:02:56.672Z,99227.38
2023-05-23T13:05:46.515Z,99224.19
2023-05-23T13:08:34.202Z,99211.69
2023-05-23T13:11:22.533Z,99222.16
2023-05-23T13:14:10.974Z,99223.59
2023-05-23T13:16:59.146Z,99220.44
2023-05-23T13:19:47.195Z,99216.72
2023-05-23T13:22:36.526Z,99226.53
2023-05-23T13:25:24.259Z,99216.72
2023-05-23T13:28:12.034Z,99219.56
2023-05-23T13:31:00.236Z,99226.69
2023-05-23T13:33:48.045Z,99219.78
2023-05-23T13:36:36.067Z,99221.03
2023-05-23T13:39:25.112Z,99219.38
2023-05-23T13:42:12.920Z,99212.09
2023-05-23T13:45:00.918Z,99201.50
2023-05-23T13:47:48.635Z,99206.41
2023-05-23T13:50:36.492Z,99193.16
2023-05-23T13:53:24.198Z,99202.31
2023-05-23T13:56:13.313Z,99198.78
2023-05-23T13:59:01.139Z,99205.03
2023-05-23T14:01:49.081Z,99169.28
2023-05-23T14:04:36.837Z,99193.09
2023-05-23T14:07:24.604Z,99192.50
2023-05-23T14:10:12.710Z,99159.94
2023-05-23T14:13:02.233Z,99192.28
2023-05-23T14:15:50.136Z,99192.28
2023-05-23T14:18:37.952Z,99193.50
2023-05-23T14:21:25.609Z,99185.16
2023-05-23T14:24:13.405Z,99187.88
2023-05-23T14:27:02.560Z,99181.34
2023-05-23T14:29:51.734Z,99181.34
2023-05-23T14:32:39.782Z,99183.25
2023-05-23T14:35:29.568Z,99188.91
2023-05-23T14:38:17.461Z,99192.84
2023-05-23T14:41:05.147Z,99185.53
2023-05-23T14:43:53.088Z,99128.44
2023-05-23T14:46:48.448Z,99192.41
2023-05-23T14:49:36.888Z,99184.34
2023-05-23T14:52:24.728Z,99191.25
2023-05-23T14:55:12.680Z,99178.91
2023-05-23T14:58:00.632Z,99173.84
2023-05-23T15:00:48.480Z,99172.59
2023-05-23T15:03:42.040Z,99176.63
2023-05-23T15:06:29.802Z,99173.03
2023-05-23T15:09:18.254Z,99173.88
2023-05-23T15:12:09.785Z,99156.31
2023-05-23T15:15:03.350Z,99169.59
2023-05-23T15:17:52.156Z,99156.72
2023-05-23T15:20:41.679Z,99158.88
2023-05-23T15:23:29.571Z,99162.88
2023-05-23T15:26:17.336Z,99160.44
2023-05-23T15:29:05.072Z,99159.59
2023-05-23T15:31:52.823Z,99162.66
2023-05-23T15:34:40.517Z,99169.44
2023-05-23T15:37:32.586Z,99163.44
2023-05-23T15:40:21.685Z,99169.28
2023-05-23T15:43:09.488Z,99072.88
2023-05-23T15:45:57.265Z,99173.41
2023-05-23T15:48:44.994Z,99178.31
2023-05-23T15:51:36.564Z,99176.63
2023-05-23T15:54:25.666Z,99170.19
2023-05-23T15:57:15.392Z,99170.34
2023-05-23T16:00:03.289Z,99175.47
2023-05-23T16:02:51.125Z,99175.38
2023-05-23T16:05:42.163Z,99182.78
2023-05-23T16:08:30.204Z,99184.81
2023-05-23T16:11:19.766Z,99193.78
2023-05-23T16:14:07.521Z,99193.28
2023-05-23T16:16:55.194Z,99187.97
2023-05-23T16:19:43.334Z,99183.09
2023-05-23T16:22:32.581Z,99178.16
2023-05-23T16:25:20.353Z,99190.50
2023-05-23T16:28:09.788Z,99182.66
2023-05-23T16:30:57.553Z,99185.38
2023-05-23T16:33:46.017Z,99155.06
2023-05-23T16:36:33.811Z,99189.78
2023-05-23T16:39:21.519Z,99195.38
2023-05-23T16:42:09.516Z,99185.31
2023-05-23T16:44:59.213Z,99190.53
2023-05-23T16:47:47.007Z,99201.13
2023-05-23T16:50:34.727Z,99218.69
2023-05-23T16:53:22.815Z,99246.59
2023-05-23T16:56:10.680Z,99247.53
2023-05-23T16:58:58.641Z,99237.38
2023-05-23T17:01:47.782Z,99241.88
2023-05-23T17:04:35.792Z,99249.72
2023-05-23T17:07:23.570Z,99242.16
2023-05-23T17:10:12.586Z,99256.97
2023-05-23T17:13:00.572Z,99273.22
2023-05-23T17:15:50.301Z,99286.94
2023-05-23T17:18:39.600Z,99262.44
2023-05-23T17:21:27.633Z,99296.97
2023-05-23T17:24:16.149Z,99293.34
2023-05-23T17:27:05.350Z,99293.59
2023-05-23T17:29:53.063Z,99288.34
2023-05-23T17:32:42.154Z,99289.19
2023-05-23T17:35:31.808Z,99281.72
2023-05-23T17:38:20.167Z,99293.72
2023-05-23T17:41:07.969Z,99296.91
2023-05-23T17:43:55.776Z,99292.50
2023-05-23T17:46:43.610Z,99294.31
2023-05-23T17:49:31.470Z,99299.31
2023-05-23T17:52:20.606Z,99300.91
2023-05-23T17:55:08.962Z,99293.94
2023-05-23T17:57:56.653Z,99305.28
2023-05-23T18:00:44.881Z,99300.81
2023-05-23T18:03:32.868Z,99300.78
2023-05-23T18:06:20.666Z,99300.41
2023-05-23T18:09:09.787Z,99302.13
2023-05-23T18:11:57.496Z,99309.44
2023-05-23T18:14:45.602Z,99306.69
2023-05-23T18:17:33.415Z,99309.16
2023-05-23T18:20:21.213Z,99308.81
2023-05-23T18:23:09.251Z,99304.88
2023-05-23T18:25:59.466Z,99302.03
2023-05-23T18:28:47.209Z,99290.91
2023-05-23T18:31:34.918Z,99304.09
2023-05-23T18:34:23.130Z,99315.94
2023-05-23T18:37:10.871Z,99313.09
2023-05-23T18:40:00.304Z,99313.72
2023-05-23T18:42:50.361Z,99305.88
2023-05-23T18:45:38.099Z,99256.13
2023-05-23T18:48:26.817Z,99307.69
2023-05-23T18:51:14.721Z,99316.50
2023-05-23T18:54:02.492Z,99314.78
2023-05-23T18:56:50.422Z,99322.19
2023-05-23T18:59:39.526Z,99320.66
2023-05-23T19:02:27.550Z,99319.88
2023-05-23T19:05:15.395Z,99331.53
2023-05-23T19:08:03.454Z,99331.06
2023-05-23T19:10:51.232Z,99335.53
2023-05-23T19:13:39.032Z,99331.19
2023-05-23T19:16:28.254Z,99333.91
2023-05-23T19:19:16.791Z,99315.84
2023-05-23T19:22:04.678Z,99335.72
2023-05-23T19:24:52.344Z,99347.16
2023-05-23T19:27:40.237Z,99346.13
2023-05-23T19:30:28.391Z,99353.66
2023-05-23T19:33:19.390Z,99330.53
2023-05-23T19:36:07.422Z,99354.22
2023-05-23T19:38:55.607Z,99358.72
2023-05-23T19:41:43.346Z,99354.47
2023-05-23T19:44:31.551Z,99353.84
2023-05-23T19:47:19.370Z,99331.38
2023-05-23T19:50:11.990Z,99351.91
2023-05-23T19:53:00.668Z,99337.75
2023-05-23T19:55:48.384Z,99351.94
2023-05-23T19:58:36.338Z,99357.69
2023-05-23T20:01:24.178Z,99351.19
2023-05-23T20:04:12.983Z,99343.25
2023-05-23T20:07:02.228Z,99338.34
2023-05-23T20:09:50.022Z,99322.53
2023-05-23T20:12:37.830Z,99349.66
2023-05-23T20:15:38.650Z,99352.94
2023-05-23T20:18:26.950Z,99337.84
2023-05-23T20:21:14.718Z,99354.13
2023-05-23T20:24:03.916Z,99363.31
2023-05-23T20:26:51.652Z,99361.53
2023-05-23T20:29:39.645Z,99356.41
2023-05-23T20:32:27.542Z,99360.97
2023-05-23T20:35:15.450Z,99359.16
2023-05-23T20:38:03.407Z,99375.72
2023-05-23T20:40:52.857Z,99354.84
2023-05-23T20:43:40.860Z,99326.06
2023-05-23T20:46:28.853Z,99357.13
2023-05-23T20:49:16.924Z,99358.94
2023-05-23T20:52:05.555Z,99360.59
2023-05-23T20:54:54.459Z,99357.69
2023-05-23T20:57:43.801Z,99360.44
2023-05-23T21:00:31.866Z,99364.28
2023-05-23T21:03:20.032Z,99359.63
2023-05-23T21:06:08.435Z,99350.03
2023-05-23T21:08:56.189Z,99355.44
2023-05-23T21:11:44.054Z,99344.88
2023-05-23T21:14:33.234Z,99357.25
2023-05-23T21:17:21.125Z,99347.09
2023-05-23T21:20:10.720Z,99358.09
2023-05-23T21:22:58.597Z,99366.63
2023-05-23T21:25:46.302Z,99365.13
2023-05-23T21:28:34.044Z,99359.84
2023-05-23T21:31:33.248Z,99359.09
2023-05-23T21:34:25.252Z,99363.09
2023-05-23T21:37:13.011Z,99356.88
2023-05-23T21:40:00.758Z,99363.97
2023-05-23T21:42:48.515Z,99361.44
2023-05-23T21:45:36.248Z,99363.28
2023-05-23T21:48:25.781Z,99357.88
2023-05-23T21:51:13.537Z,99358.03
2023-05-23T21:54:01.395Z,99354.22
2023-05-23T21:56:49.190Z,99345.75
2023-05-23T21:59:36.923Z,99357.75
2023-05-23T22:02:24.700Z,99355.72
2023-05-23T22:05:14.265Z,99354.66
2023-05-23T22:08:01.961Z,99350.53
2023-05-23T22:10:49.720Z,99338.47
2023-05-23T22:13:37.506Z,99338.78
2023-05-23T22:16:26.087Z,99323.44
2023-05-23T22:19:18.040Z,99328.97
2023-05-23T22:22:07.979Z,99334.00
2023-05-23T22:24:55.715Z,99333.56
2023-05-23T22:27:43.557Z,99343.16
2023-05-23T22:30:31.393Z,99328.78
2023-05-23T22:33:19.066Z,99339.88
2023-05-23T22:36:07.974Z,99341.34
2023-05-23T22:38:57.346Z,99350.09
2023-05-23T22:41:45.392Z,99344.19
2023-05-23T22:44:33.091Z,99345.56
2023-05-23T22:47:20.939Z,99357.13
2023-05-23T22:50:09.633Z,99349.88
2023-05-23T22:52:58.453Z,99344.16
2023-05-23T22:55:47.485Z,99345.84
2023-05-23T22:58:35.615Z,99335.75
2023-05-23T23:01:23.492Z,99347.78
2023-05-23T23:04:12.173Z,99351.31
2023-05-23T23:07:01.372Z,99346.25
2023-05-23T23:09:49.156Z,99342.88
2023-05-23T23:12:38.315Z,99335.50
2023-05-23T23:15:26.243Z,99329.44
2023-05-23T23:18:14.817Z,99320.41
2023-05-23T23:21:02.590Z,99326.59
2023-05-23T23:23:50.281Z,99301.56
2023-05-23T23:26:38.175Z,99333.97
2023-05-23T23:29:27.235Z,99328.25
2023-05-23T23:32:14.876Z,99327.94
2023-05-23T23:35:02.934Z,99333.66
2023-05-23T23:37:50.672Z,99332.78
2023-05-23T23:40:38.447Z,99330.78
2023-05-23T23:43:26.165Z,99328.75
2023-05-23T23:46:15.279Z,99313.59
2023-05-23T23:49:02.988Z,99323.19
2023-05-23T23:51:50.993Z,99322.63
2023-05-23T23:54:38.747Z,99320.63
2023-05-23T23:57:26.546Z,99319.97
